createdAt,value
2023-04-02T00:00:04.177Z,93719.00
2023-04-02T00:01:04.263Z,93717.00
2023-04-02T00:02:04.343Z,93717.00
2023-04-02T00:03:04.415Z,93719.00
2023-04-02T00:04:04.379Z,93719.00
2023-04-02T00:05:04.392Z,93715.00
2023-04-02T00:06:04.416Z,93717.00
2023-04-02T00:07:04.440Z,93717.00
2023-04-02T00:08:04.488Z,93717.00
2023-04-02T00:09:04.538Z,93717.00
2023-04-02T00:10:04.555Z,93717.00
2023-04-02T00:11:04.563Z,93721.00
2023-04-02T00:12:04.618Z,93719.00
2023-04-02T00:13:04.645Z,93719.00
2023-04-02T00:14:04.685Z,93719.00
2023-04-02T00:15:04.683Z,93715.00
2023-04-02T00:16:04.748Z,93717.00
2023-04-02T00:17:04.772Z,93715.00
2023-04-02T00:18:04.819Z,93715.00
2023-04-02T00:19:04.835Z,93711.00
2023-04-02T00:20:04.869Z,93711.00
2023-04-02T00:21:04.938Z,93713.00
2023-04-02T00:22:04.955Z,93709.00
2023-04-02T00:23:05.007Z,93713.00
2023-04-02T00:24:05.059Z,93713.00
2023-04-02T00:25:05.086Z,93715.00
2023-04-02T00:26:05.132Z,93713.00
2023-04-02T00:27:05.159Z,93711.00
2023-04-02T00:28:05.202Z,93709.00
2023-04-02T00:29:05.240Z,93711.00
2023-04-02T00:30:05.269Z,93713.00
2023-04-02T00:31:05.282Z,93713.00
2023-04-02T00:32:05.382Z,93715.00
2023-04-02T00:33:05.414Z,93713.00
2023-04-02T00:34:05.408Z,93715.00
2023-04-02T00:35:05.455Z,93713.00
2023-04-02T00:36:05.514Z,93715.00
2023-04-02T00:37:05.526Z,93717.00
2023-04-02T00:38:05.571Z,93717.00
2023-04-02T00:39:05.606Z,93717.00
2023-04-02T00:40:05.650Z,93717.00
2023-04-02T00:41:05.721Z,93719.00
2023-04-02T00:42:05.868Z,93717.00
2023-04-02T00:43:06.047Z,93719.00
2023-04-02T00:44:06.203Z,93721.00
2023-04-02T00:45:06.384Z,93721.00
2023-04-02T00:46:06.543Z,93719.00
2023-04-02T00:47:06.694Z,93721.00
2023-04-02T00:48:06.921Z,93721.00
2023-04-02T00:49:07.105Z,93721.00
2023-04-02T00:50:07.273Z,93723.00
2023-04-02T00:51:07.457Z,93723.00
2023-04-02T00:52:07.631Z,93725.00
2023-04-02T00:53:07.824Z,93723.00
2023-04-02T00:54:07.983Z,93723.00
2023-04-02T00:55:08.181Z,93727.00
2023-04-02T00:56:08.367Z,93725.00
2023-04-02T00:57:08.559Z,93725.00
2023-04-02T00:58:08.725Z,93727.00
2023-04-02T00:59:08.939Z,93725.00
2023-04-02T01:00:09.064Z,93727.00
2023-04-02T01:01:09.257Z,93727.00
2023-04-02T01:02:09.438Z,93723.00
2023-04-02T01:03:09.701Z,93723.00
2023-04-02T01:04:09.751Z,93723.00
2023-04-02T01:05:09.895Z,93725.00
2023-04-02T01:06:10.049Z,93723.00
2023-04-02T01:07:10.208Z,93723.00
2023-04-02T01:08:10.391Z,93723.00
2023-04-02T01:09:10.662Z,93723.00
2023-04-02T01:10:10.836Z,93723.00
2023-04-02T01:11:11.003Z,93721.00
2023-04-02T01:12:11.157Z,93727.00
2023-04-02T01:13:11.283Z,93723.00
2023-04-02T01:14:11.392Z,93729.00
2023-04-02T01:15:11.528Z,93725.00
2023-04-02T01:16:11.751Z,93727.00
2023-04-02T01:17:11.861Z,93727.00
2023-04-02T01:18:12.027Z,93729.00
2023-04-02T01:19:12.228Z,93729.00
2023-04-02T01:20:12.354Z,93729.00
2023-04-02T01:21:12.615Z,93729.00
2023-04-02T01:22:12.739Z,93729.00
2023-04-02T01:23:12.944Z,93729.00
2023-04-02T01:24:13.105Z,93729.00
2023-04-02T01:25:13.281Z,93729.00
2023-04-02T01:26:13.460Z,93727.00
2023-04-02T01:27:13.648Z,93727.00
2023-04-02T01:28:13.828Z,93727.00
2023-04-02T01:29:14.000Z,93729.00
2023-04-02T01:30:14.191Z,93727.00
2023-04-02T01:31:14.363Z,93727.00
2023-04-02T01:32:14.562Z,93727.00
2023-04-02T01:33:14.734Z,93727.00
2023-04-02T01:34:14.982Z,93725.00
2023-04-02T01:35:15.147Z,93727.00
2023-04-02T01:36:15.395Z,93731.00
2023-04-02T01:37:15.540Z,93731.00
2023-04-02T01:38:15.721Z,93731.00
2023-04-02T01:39:15.915Z,93735.00
2023-04-02T01:40:16.090Z,93739.00
2023-04-02T01:41:16.337Z,93742.00
2023-04-02T01:42:16.524Z,93744.00
2023-04-02T01:43:16.713Z,93744.00
2023-04-02T01:44:16.907Z,93744.00
2023-04-02T01:45:17.087Z,93748.00
2023-04-02T01:46:17.282Z,93746.00
2023-04-02T01:47:17.457Z,93748.00
2023-04-02T01:48:17.730Z,93744.00
2023-04-02T01:49:17.904Z,93748.00
2023-04-02T01:50:18.108Z,93752.00
2023-04-02T01:51:18.263Z,93752.00
2023-04-02T01:52:18.437Z,93752.00
2023-04-02T01:53:18.640Z,93754.00
2023-04-02T01:54:18.798Z,93754.00
2023-04-02T01:55:18.988Z,93752.00
2023-04-02T01:56:19.186Z,93758.00
2023-04-02T01:57:19.407Z,93756.00
2023-04-02T01:58:19.547Z,93760.00
2023-04-02T01:59:19.753Z,93760.00
2023-04-02T02:00:19.948Z,93762.00
2023-04-02T02:01:20.268Z,93762.00
2023-04-02T02:02:20.347Z,93762.00
2023-04-02T02:03:20.558Z,93762.00
2023-04-02T02:04:20.686Z,93764.00
2023-04-02T02:05:20.872Z,93766.00
2023-04-02T02:06:21.063Z,93770.00
2023-04-02T02:07:21.262Z,93770.00
2023-04-02T02:08:21.412Z,93770.00
2023-04-02T02:09:21.614Z,93772.00
2023-04-02T02:10:21.793Z,93772.00
2023-04-02T02:11:21.948Z,93772.00
2023-04-02T02:12:22.107Z,93774.00
2023-04-02T02:13:22.249Z,93776.00
2023-04-02T02:14:22.411Z,93774.00
2023-04-02T02:15:22.561Z,93774.00
2023-04-02T02:16:22.808Z,93774.00
2023-04-02T02:17:22.960Z,93774.00
2023-04-02T02:18:23.099Z,93776.00
2023-04-02T02:19:23.272Z,93776.00
2023-04-02T02:20:23.419Z,93778.00
2023-04-02T02:21:23.627Z,93776.00
2023-04-02T02:22:23.779Z,93778.00
2023-04-02T02:23:23.978Z,93776.00
2023-04-02T02:24:24.154Z,93776.00
2023-04-02T02:25:24.331Z,93774.00
2023-04-02T02:26:24.502Z,93776.00
2023-04-02T02:27:24.674Z,93776.00
2023-04-02T02:28:24.873Z,93776.00
2023-04-02T02:29:25.122Z,93780.00
2023-04-02T02:30:25.386Z,93781.00
2023-04-02T02:31:25.611Z,93780.00
2023-04-02T02:32:25.871Z,93780.00
2023-04-02T02:33:26.008Z,93780.00
2023-04-02T02:34:26.171Z,93780.00
2023-04-02T02:35:26.361Z,93783.00
2023-04-02T02:36:26.611Z,93783.00
2023-04-02T02:37:26.795Z,93785.00
2023-04-02T02:38:27.031Z,93787.00
2023-04-02T02:39:27.214Z,93787.00
2023-04-02T02:40:27.262Z,93785.00
2023-04-02T02:41:27.527Z,93787.00
2023-04-02T02:42:27.755Z,93785.00
2023-04-02T02:43:27.946Z,93787.00
2023-04-02T02:44:28.113Z,93789.00
2023-04-02T02:45:28.277Z,93787.00
2023-04-02T02:46:28.561Z,93789.00
2023-04-02T02:47:28.806Z,93785.00
2023-04-02T02:48:28.952Z,93787.00
2023-04-02T02:49:29.117Z,93787.00
2023-04-02T02:50:29.301Z,93787.00
2023-04-02T02:51:29.485Z,93789.00
2023-04-02T02:52:29.786Z,93789.00
2023-04-02T02:53:29.952Z,93787.00
2023-04-02T02:54:30.133Z,93785.00
2023-04-02T02:55:30.328Z,93783.00
2023-04-02T02:56:30.579Z,93785.00
2023-04-02T02:57:30.999Z,93785.00
2023-04-02T02:58:31.125Z,93785.00
2023-04-02T02:59:31.368Z,93783.00
2023-04-02T03:00:31.617Z,93783.00
2023-04-02T03:01:31.810Z,93783.00
2023-04-02T03:02:32.093Z,93785.00
2023-04-02T03:03:32.372Z,93785.00
2023-04-02T03:04:32.469Z,93783.00
2023-04-02T03:05:32.665Z,93789.00
2023-04-02T03:06:32.826Z,93793.00
2023-04-02T03:07:33.002Z,93799.00
2023-04-02T03:08:33.166Z,93803.00
2023-04-02T03:09:33.383Z,93801.00
2023-04-02T03:10:33.536Z,93807.00
2023-04-02T03:11:33.734Z,93811.00
2023-04-02T03:12:34.023Z,93811.00
2023-04-02T03:13:34.169Z,93813.00
2023-04-02T03:14:34.418Z,93809.00
2023-04-02T03:15:34.993Z,93811.00
2023-04-02T03:16:34.625Z,93811.00
2023-04-02T03:17:34.693Z,93813.00
2023-04-02T03:18:34.772Z,93819.00
2023-04-02T03:19:34.734Z,93815.00
2023-04-02T03:20:34.789Z,93823.00
2023-04-02T03:21:34.837Z,93823.00
2023-04-02T03:22:34.889Z,93819.00
2023-04-02T03:23:34.920Z,93819.00
2023-04-02T03:24:34.963Z,93823.00
2023-04-02T03:25:35.148Z,93827.00
2023-04-02T03:26:35.059Z,93825.00
2023-04-02T03:27:35.085Z,93821.00
2023-04-02T03:28:35.133Z,93819.00
2023-04-02T03:29:35.172Z,93819.00
2023-04-02T03:30:35.225Z,93821.00
2023-04-02T03:31:35.271Z,93821.00
2023-04-02T03:32:35.323Z,93821.00
2023-04-02T03:33:35.348Z,93821.00
2023-04-02T03:34:35.382Z,93823.00
2023-04-02T03:35:35.639Z,93825.00
2023-04-02T03:36:35.481Z,93827.00
2023-04-02T03:37:35.546Z,93828.00
2023-04-02T03:38:35.559Z,93827.00
2023-04-02T03:39:35.635Z,93830.00
2023-04-02T03:40:35.760Z,93833.00
2023-04-02T03:41:35.716Z,93833.00
2023-04-02T03:42:35.970Z,93833.00
2023-04-02T03:43:36.165Z,93833.00
2023-04-02T03:44:36.338Z,93835.00
2023-04-02T03:45:36.760Z,93833.00
2023-04-02T03:46:36.628Z,93836.00
2023-04-02T03:47:36.664Z,93842.00
2023-04-02T03:48:36.622Z,93844.00
2023-04-02T03:49:36.676Z,93844.00
2023-04-02T03:50:36.719Z,93846.00
2023-04-02T03:51:36.770Z,93850.00
2023-04-02T03:52:36.827Z,93852.00
2023-04-02T03:53:36.852Z,93852.00
2023-04-02T03:54:36.892Z,93856.00
2023-04-02T03:55:37.264Z,93858.00
2023-04-02T03:56:36.978Z,93860.00
2023-04-02T03:57:37.061Z,93856.00
2023-04-02T03:58:37.075Z,93860.00
2023-04-02T03:59:37.128Z,93860.00
2023-04-02T04:00:37.194Z,93862.00
2023-04-02T04:01:37.288Z,93864.00
2023-04-02T04:02:37.285Z,93866.00
2023-04-02T04:03:37.381Z,93866.00
2023-04-02T04:04:37.349Z,93868.00
2023-04-02T04:05:37.498Z,93868.00
2023-04-02T04:06:37.445Z,93868.00
2023-04-02T04:07:37.523Z,93864.00
2023-04-02T04:08:37.525Z,93862.00
2023-04-02T04:09:37.609Z,93862.00
2023-04-02T04:10:37.615Z,93862.00
2023-04-02T04:11:37.677Z,93864.00
2023-04-02T04:12:37.754Z,93858.00
2023-04-02T04:13:37.795Z,93860.00
2023-04-02T04:14:37.832Z,93864.00
2023-04-02T04:15:38.155Z,93862.00
2023-04-02T04:16:37.997Z,93864.00
2023-04-02T04:17:37.998Z,93864.00
2023-04-02T04:18:38.075Z,93866.00
2023-04-02T04:19:38.082Z,93866.00
2023-04-02T04:20:38.130Z,93868.00
2023-04-02T04:21:38.193Z,93868.00
2023-04-02T04:22:38.238Z,93872.00
2023-04-02T04:23:38.292Z,93872.00
2023-04-02T04:24:38.339Z,93870.00
2023-04-02T04:25:38.361Z,93872.00
2023-04-02T04:26:38.410Z,93872.00
2023-04-02T04:27:38.484Z,93872.00
2023-04-02T04:28:38.592Z,93874.00
2023-04-02T04:29:38.551Z,93874.00
2023-04-02T04:30:38.625Z,93876.00
2023-04-02T04:31:38.693Z,93878.00
2023-04-02T04:32:38.757Z,93882.00
2023-04-02T04:33:38.779Z,93883.00
2023-04-02T04:34:38.809Z,93887.00
2023-04-02T04:35:39.391Z,93889.00
2023-04-02T04:36:38.916Z,93889.00
2023-04-02T04:37:39.832Z,93897.00
2023-04-02T04:38:39.013Z,93897.00
2023-04-02T04:39:39.081Z,93899.00
2023-04-02T04:40:39.112Z,93901.00
2023-04-02T04:41:39.190Z,93903.00
2023-04-02T04:42:39.213Z,93905.00
2023-04-02T04:43:39.279Z,93907.00
2023-04-02T04:44:39.310Z,93909.00
2023-04-02T04:45:39.392Z,93907.00
2023-04-02T04:46:39.422Z,93911.00
2023-04-02T04:47:39.456Z,93911.00
2023-04-02T04:48:39.516Z,93913.00
2023-04-02T04:49:39.592Z,93913.00
2023-04-02T04:50:39.757Z,93911.00
2023-04-02T04:51:39.899Z,93911.00
2023-04-02T04:52:40.082Z,93911.00
2023-04-02T04:53:40.253Z,93915.00
2023-04-02T04:54:40.406Z,93919.00
2023-04-02T04:55:40.606Z,93917.00
2023-04-02T04:56:40.741Z,93920.00
2023-04-02T04:57:40.892Z,93920.00
2023-04-02T04:58:41.032Z,93924.00
2023-04-02T04:59:41.327Z,93926.00
2023-04-02T05:00:41.409Z,93932.00
2023-04-02T05:01:41.611Z,93932.00
2023-04-02T05:02:41.760Z,93932.00
2023-04-02T05:03:41.874Z,93932.00
2023-04-02T05:04:42.087Z,93936.00
2023-04-02T05:05:42.139Z,93938.00
2023-04-02T05:06:42.390Z,93938.00
2023-04-02T05:07:42.489Z,93936.00
2023-04-02T05:08:42.662Z,93938.00
2023-04-02T05:09:42.813Z,93938.00
2023-04-02T05:10:43.076Z,93938.00
2023-04-02T05:11:43.245Z,93938.00
2023-04-02T05:12:43.396Z,93944.00
2023-04-02T05:13:43.597Z,93942.00
2023-04-02T05:14:43.789Z,93942.00
2023-04-02T05:15:44.009Z,93942.00
2023-04-02T05:16:44.154Z,93942.00
2023-04-02T05:17:44.347Z,93944.00
2023-04-02T05:18:44.515Z,93944.00
2023-04-02T05:19:44.696Z,93942.00
2023-04-02T05:20:44.859Z,93944.00
2023-04-02T05:21:45.049Z,93944.00
2023-04-02T05:22:45.209Z,93944.00
2023-04-02T05:23:45.300Z,93946.00
2023-04-02T05:24:45.446Z,93946.00
2023-04-02T05:25:45.625Z,93948.00
2023-04-02T05:26:45.717Z,93950.00
2023-04-02T05:27:45.765Z,93948.00
2023-04-02T05:28:45.800Z,93948.00
2023-04-02T05:29:45.864Z,93950.00
2023-04-02T05:30:45.878Z,93950.00
2023-04-02T05:31:46.020Z,93952.00
2023-04-02T05:32:46.042Z,93952.00
2023-04-02T05:33:46.037Z,93956.00
2023-04-02T05:34:46.078Z,93956.00
2023-04-02T05:35:46.181Z,93956.00
2023-04-02T05:36:46.202Z,93958.00
2023-04-02T05:37:46.237Z,93958.00
2023-04-02T05:38:46.252Z,93956.00
2023-04-02T05:39:46.313Z,93956.00
2023-04-02T05:40:46.361Z,93954.00
2023-04-02T05:41:46.393Z,93956.00
2023-04-02T05:42:46.462Z,93956.00
2023-04-02T05:43:46.514Z,93960.00
2023-04-02T05:44:46.524Z,93958.00
2023-04-02T05:45:46.588Z,93960.00
2023-04-02T05:46:46.664Z,93960.00
2023-04-02T05:47:46.699Z,93964.00
2023-04-02T05:48:46.723Z,93960.00
2023-04-02T05:49:46.770Z,93960.00
2023-04-02T05:50:46.784Z,93964.00
2023-04-02T05:51:46.829Z,93962.00
2023-04-02T05:52:46.890Z,93964.00
2023-04-02T05:53:46.934Z,93964.00
2023-04-02T05:54:46.971Z,93960.00
2023-04-02T05:55:47.010Z,93967.00
2023-04-02T05:56:47.088Z,93967.00
2023-04-02T05:57:56.704Z,93967.00
2023-04-02T05:58:48.174Z,93971.00
2023-04-02T05:59:47.083Z,93967.00
2023-04-02T06:00:47.063Z,93971.00
2023-04-02T06:01:47.074Z,93973.00
2023-04-02T06:02:47.085Z,93973.00
2023-04-02T06:03:47.178Z,93973.00
2023-04-02T06:04:47.055Z,93973.00
2023-04-02T06:05:47.051Z,93973.00
2023-04-02T06:06:47.024Z,93977.00
2023-04-02T06:07:47.018Z,93981.00
2023-04-02T06:08:47.045Z,93983.00
2023-04-02T06:09:47.089Z,93983.00
2023-04-02T06:10:47.117Z,93983.00
2023-04-02T06:11:47.132Z,93985.00
2023-04-02T06:12:47.189Z,93985.00
2023-04-02T06:13:47.221Z,93989.00
2023-04-02T06:14:47.259Z,93991.00
2023-04-02T06:15:47.745Z,93989.00
2023-04-02T06:16:47.322Z,93993.00
2023-04-02T06:17:47.370Z,93991.00
2023-04-02T06:18:47.363Z,93993.00
2023-04-02T06:19:47.384Z,93989.00
2023-04-02T06:20:47.398Z,93993.00
2023-04-02T06:21:47.424Z,93993.00
2023-04-02T06:22:47.468Z,93993.00
2023-04-02T06:23:47.483Z,93995.00
2023-04-02T06:24:47.485Z,93995.00
2023-04-02T06:25:47.512Z,93997.00
2023-04-02T06:26:47.508Z,93997.00
2023-04-02T06:27:47.530Z,93993.00
2023-04-02T06:28:47.549Z,93995.00
2023-04-02T06:29:47.547Z,93997.00
2023-04-02T06:30:47.581Z,93995.00
2023-04-02T06:31:49.417Z,93995.00
2023-04-02T06:32:47.605Z,93999.00
2023-04-02T06:33:47.577Z,93997.00
2023-04-02T06:34:47.614Z,93999.00
2023-04-02T06:35:47.654Z,93999.00
2023-04-02T06:36:47.629Z,94003.00
2023-04-02T06:37:47.631Z,94001.00
2023-04-02T06:38:47.623Z,94001.00
2023-04-02T06:39:47.633Z,94001.00
2023-04-02T06:40:47.607Z,94003.00
2023-04-02T06:41:47.616Z,94005.00
2023-04-02T06:42:47.630Z,94007.00
2023-04-02T06:43:47.609Z,94009.00
2023-04-02T06:44:47.634Z,94009.00
2023-04-02T06:45:47.670Z,94009.00
2023-04-02T06:46:47.635Z,94011.00
2023-04-02T06:47:47.630Z,94011.00
2023-04-02T06:48:47.612Z,94013.00
2023-04-02T06:49:47.642Z,94013.00
2023-04-02T06:50:47.608Z,94013.00
2023-04-02T06:51:47.629Z,94014.00
2023-04-02T06:52:47.686Z,94016.00
2023-04-02T06:53:47.728Z,94018.00
2023-04-02T06:54:47.880Z,94018.00
2023-04-02T06:55:47.864Z,94020.00
2023-04-02T06:56:47.928Z,94022.00
2023-04-02T06:57:47.986Z,94022.00
2023-04-02T06:58:48.027Z,94022.00
2023-04-02T06:59:48.091Z,94018.00
2023-04-02T07:00:48.148Z,94018.00
2023-04-02T07:01:48.230Z,94018.00
2023-04-02T07:02:48.317Z,94016.00
2023-04-02T07:03:48.297Z,94014.00
2023-04-02T07:04:48.393Z,94014.00
2023-04-02T07:05:48.412Z,94016.00
2023-04-02T07:06:48.454Z,94020.00
2023-04-02T07:07:48.540Z,94018.00
2023-04-02T07:08:48.563Z,94018.00
2023-04-02T07:09:48.609Z,94016.00
2023-04-02T07:10:48.628Z,94014.00
2023-04-02T07:11:48.656Z,94016.00
2023-04-02T07:12:48.727Z,94014.00
2023-04-02T07:13:48.712Z,94016.00
2023-04-02T07:14:48.751Z,94014.00
2023-04-02T07:15:48.776Z,94013.00
2023-04-02T07:16:48.765Z,94009.00
2023-04-02T07:17:48.817Z,94011.00
2023-04-02T07:18:48.808Z,94013.00
2023-04-02T07:19:48.814Z,94009.00
2023-04-02T07:20:48.813Z,94013.00
2023-04-02T07:21:48.814Z,94013.00
2023-04-02T07:22:48.801Z,94011.00
2023-04-02T07:23:48.818Z,94011.00
2023-04-02T07:24:48.821Z,94007.00
2023-04-02T07:25:48.818Z,94009.00
2023-04-02T07:26:48.822Z,94009.00
2023-04-02T07:27:48.823Z,94005.00
2023-04-02T07:28:48.823Z,94005.00
2023-04-02T07:29:48.803Z,94011.00
2023-04-02T07:30:48.842Z,94013.00
2023-04-02T07:31:48.978Z,94013.00
2023-04-02T07:32:48.885Z,94011.00
2023-04-02T07:33:48.867Z,94009.00
2023-04-02T07:34:48.881Z,94009.00
2023-04-02T07:35:48.891Z,94005.00
2023-04-02T07:36:48.899Z,94007.00
2023-04-02T07:37:48.939Z,94005.00
2023-04-02T07:38:48.947Z,94007.00
2023-04-02T07:39:49.008Z,94005.00
2023-04-02T07:40:49.040Z,94007.00
2023-04-02T07:41:49.075Z,94009.00
2023-04-02T07:42:49.125Z,94011.00
2023-04-02T07:43:49.191Z,94013.00
2023-04-02T07:44:49.224Z,94014.00
2023-04-02T07:45:49.293Z,94014.00
2023-04-02T07:46:49.296Z,94016.00
2023-04-02T07:47:49.351Z,94018.00
2023-04-02T07:48:49.407Z,94016.00
2023-04-02T07:49:49.454Z,94020.00
2023-04-02T07:50:49.514Z,94018.00
2023-04-02T07:51:49.542Z,94020.00
2023-04-02T07:52:49.583Z,94020.00
2023-04-02T07:53:49.623Z,94018.00
2023-04-02T07:54:49.656Z,94020.00
2023-04-02T07:55:49.694Z,94020.00
2023-04-02T07:56:49.751Z,94022.00
2023-04-02T07:57:49.773Z,94020.00
2023-04-02T07:58:49.796Z,94018.00
2023-04-02T07:59:49.818Z,94020.00
2023-04-02T08:00:49.838Z,94018.00
2023-04-02T08:01:49.886Z,94020.00
2023-04-02T08:02:49.871Z,94022.00
2023-04-02T08:03:50.803Z,94020.00
2023-04-02T08:04:49.911Z,94020.00
2023-04-02T08:05:49.922Z,94018.00
2023-04-02T08:06:49.962Z,94020.00
2023-04-02T08:07:49.964Z,94020.00
2023-04-02T08:08:49.990Z,94016.00
2023-04-02T08:09:50.021Z,94016.00
2023-04-02T08:10:50.024Z,94018.00
2023-04-02T08:11:50.046Z,94018.00
2023-04-02T08:12:50.047Z,94022.00
2023-04-02T08:13:50.060Z,94020.00
2023-04-02T08:14:50.047Z,94018.00
2023-04-02T08:15:50.058Z,94020.00
2023-04-02T08:16:50.104Z,94020.00
2023-04-02T08:17:50.154Z,94022.00
2023-04-02T08:18:50.056Z,94022.00
2023-04-02T08:19:55.113Z,94020.00
2023-04-02T08:20:51.070Z,94018.00
2023-04-02T08:21:50.059Z,94020.00
2023-04-02T08:22:50.076Z,94020.00
2023-04-02T08:23:50.047Z,94020.00
2023-04-02T08:24:50.048Z,94020.00
2023-04-02T08:25:50.023Z,94018.00
2023-04-02T08:26:50.030Z,94022.00
2023-04-02T08:27:50.013Z,94020.00
2023-04-02T08:28:49.994Z,94020.00
2023-04-02T08:29:49.989Z,94020.00
2023-04-02T08:30:50.048Z,94018.00
2023-04-02T08:31:49.987Z,94016.00
2023-04-02T08:32:50.006Z,94018.00
2023-04-02T08:33:49.971Z,94018.00
2023-04-02T08:34:49.962Z,94018.00
2023-04-02T08:35:49.979Z,94016.00
2023-04-02T08:36:49.956Z,94014.00
2023-04-02T08:37:49.946Z,94016.00
2023-04-02T08:38:49.940Z,94016.00
2023-04-02T08:39:49.926Z,94016.00
2023-04-02T08:40:49.925Z,94016.00
2023-04-02T08:41:49.974Z,94016.00
2023-04-02T08:42:50.023Z,94013.00
2023-04-02T08:43:50.097Z,94018.00
2023-04-02T08:44:50.152Z,94016.00
2023-04-02T08:45:50.205Z,94014.00
2023-04-02T08:46:50.291Z,94014.00
2023-04-02T08:47:50.352Z,94013.00
2023-04-02T08:48:50.383Z,94011.00
2023-04-02T08:49:50.420Z,94011.00
2023-04-02T08:50:50.469Z,94011.00
2023-04-02T08:51:50.492Z,94007.00
2023-04-02T08:52:50.548Z,94007.00
2023-04-02T08:53:50.624Z,94007.00
2023-04-02T08:54:50.629Z,94007.00
2023-04-02T08:55:50.718Z,94009.00
2023-04-02T08:56:50.747Z,94009.00
2023-04-02T08:57:50.808Z,94007.00
2023-04-02T08:58:50.879Z,94011.00
2023-04-02T08:59:50.938Z,94003.00
2023-04-02T09:00:50.975Z,94003.00
2023-04-02T09:01:51.130Z,94005.00
2023-04-02T09:02:51.164Z,94005.00
2023-04-02T09:03:51.159Z,94007.00
2023-04-02T09:04:51.211Z,94007.00
2023-04-02T09:05:51.197Z,94009.00
2023-04-02T09:06:51.217Z,94005.00
2023-04-02T09:07:51.228Z,94011.00
2023-04-02T09:08:51.258Z,94011.00
2023-04-02T09:09:51.245Z,94011.00
2023-04-02T09:10:51.256Z,94014.00
2023-04-02T09:11:51.277Z,94016.00
2023-04-02T09:12:51.268Z,94014.00
2023-04-02T09:13:51.266Z,94014.00
2023-04-02T09:14:51.297Z,94014.00
2023-04-02T09:15:51.310Z,94013.00
2023-04-02T09:16:51.286Z,94014.00
2023-04-02T09:17:54.407Z,94013.00
2023-04-02T09:18:51.303Z,94014.00
2023-04-02T09:19:51.286Z,94016.00
2023-04-02T09:20:51.265Z,94014.00
2023-04-02T09:21:51.268Z,94013.00
2023-04-02T09:22:51.252Z,94014.00
2023-04-02T09:23:51.250Z,94013.00
2023-04-02T09:24:51.257Z,94013.00
2023-04-02T09:26:02.932Z,94014.00
2023-04-02T09:26:52.227Z,94013.00
2023-04-02T09:27:51.248Z,94013.00
2023-04-02T09:28:51.232Z,94014.00
2023-04-02T09:29:51.210Z,94014.00
2023-04-02T09:30:51.201Z,94014.00
2023-04-02T09:31:51.221Z,94018.00
2023-04-02T09:32:51.347Z,94016.00
2023-04-02T09:33:51.178Z,94016.00
2023-04-02T09:34:51.210Z,94022.00
2023-04-02T09:35:51.196Z,94018.00
2023-04-02T09:36:51.182Z,94020.00
2023-04-02T09:37:51.211Z,94020.00
2023-04-02T09:38:51.156Z,94020.00
2023-04-02T09:39:51.157Z,94020.00
2023-04-02T09:40:51.143Z,94020.00
2023-04-02T09:42:02.723Z,94022.00
2023-04-02T09:42:52.130Z,94020.00
2023-04-02T09:43:51.124Z,94020.00
2023-04-02T09:44:51.110Z,94022.00
2023-04-02T09:45:51.123Z,94022.00
2023-04-02T09:46:51.173Z,94020.00
2023-04-02T09:47:51.136Z,94018.00
2023-04-02T09:48:51.082Z,94018.00
2023-04-02T09:49:51.096Z,94018.00
2023-04-02T09:50:51.071Z,94018.00
2023-04-02T09:51:51.064Z,94018.00
2023-04-02T09:52:51.052Z,94018.00
2023-04-02T09:53:51.063Z,94018.00
2023-04-02T09:54:51.059Z,94016.00
2023-04-02T09:55:51.036Z,94018.00
2023-04-02T09:56:51.036Z,94018.00
2023-04-02T09:57:51.043Z,94020.00
2023-04-02T09:58:51.026Z,94022.00
2023-04-02T09:59:51.006Z,94020.00
2023-04-02T10:00:51.028Z,94022.00
2023-04-02T10:01:51.007Z,94022.00
2023-04-02T10:02:50.979Z,94020.00
2023-04-02T10:03:51.011Z,94020.00
2023-04-02T10:04:51.009Z,94024.00
2023-04-02T10:05:50.974Z,94024.00
2023-04-02T10:06:50.946Z,94018.00
2023-04-02T10:07:50.946Z,94020.00
2023-04-02T10:08:50.971Z,94018.00
2023-04-02T10:09:51.085Z,94018.00
2023-04-02T10:10:51.190Z,94022.00
2023-04-02T10:11:51.350Z,94018.00
2023-04-02T10:12:51.493Z,94018.00
2023-04-02T10:13:51.634Z,94018.00
2023-04-02T10:14:51.752Z,94020.00
2023-04-02T10:15:51.906Z,94020.00
2023-04-02T10:16:52.166Z,94020.00
2023-04-02T10:17:52.220Z,94020.00
2023-04-02T10:18:52.406Z,94018.00
2023-04-02T10:19:52.531Z,94020.00
2023-04-02T10:20:52.597Z,94018.00
2023-04-02T10:21:52.749Z,94020.00
2023-04-02T10:22:52.883Z,94020.00
2023-04-02T10:23:53.049Z,94018.00
2023-04-02T10:24:53.188Z,94018.00
2023-04-02T10:25:53.334Z,94018.00
2023-04-02T10:26:53.493Z,94016.00
2023-04-02T10:27:53.641Z,94018.00
2023-04-02T10:28:53.797Z,94018.00
2023-04-02T10:29:53.963Z,94016.00
2023-04-02T10:30:54.159Z,94018.00
2023-04-02T10:31:54.271Z,94020.00
2023-04-02T10:32:54.421Z,94016.00
2023-04-02T10:33:54.542Z,94014.00
2023-04-02T10:34:54.683Z,94016.00
2023-04-02T10:35:54.811Z,94014.00
2023-04-02T10:36:54.932Z,94014.00
2023-04-02T10:37:55.161Z,94014.00
2023-04-02T10:38:55.322Z,94013.00
2023-04-02T10:39:55.424Z,94014.00
2023-04-02T10:40:57.033Z,94014.00
2023-04-02T10:41:55.643Z,94011.00
2023-04-02T10:42:55.652Z,94014.00
2023-04-02T10:43:57.834Z,94013.00
2023-04-02T10:44:55.679Z,94016.00
2023-04-02T10:45:55.655Z,94016.00
2023-04-02T10:46:55.630Z,94018.00
2023-04-02T10:47:55.748Z,94016.00
2023-04-02T10:48:55.661Z,94016.00
2023-04-02T10:49:55.653Z,94018.00
2023-04-02T10:50:55.634Z,94018.00
2023-04-02T10:51:55.625Z,94020.00
2023-04-02T10:52:56.667Z,94022.00
2023-04-02T10:53:55.630Z,94024.00
2023-04-02T10:54:55.609Z,94024.00
2023-04-02T10:55:55.608Z,94024.00
2023-04-02T10:56:55.634Z,94026.00
2023-04-02T10:57:55.592Z,94026.00
2023-04-02T10:58:57.252Z,94028.00
2023-04-02T10:59:55.577Z,94030.00
2023-04-02T11:00:55.563Z,94032.00
2023-04-02T11:01:55.633Z,94030.00
2023-04-02T11:02:55.632Z,94030.00
2023-04-02T11:03:57.828Z,94032.00
2023-04-02T11:04:57.331Z,94030.00
2023-04-02T11:05:56.939Z,94034.00
2023-04-02T11:07:07.158Z,94036.00
2023-04-02T11:07:56.733Z,94036.00
2023-04-02T11:08:55.763Z,94034.00
2023-04-02T11:09:55.732Z,94032.00
2023-04-02T11:10:55.737Z,94032.00
2023-04-02T11:11:55.712Z,94030.00
2023-04-02T11:12:55.720Z,94032.00
2023-04-02T11:13:55.715Z,94032.00
2023-04-02T11:14:55.691Z,94034.00
2023-04-02T11:15:55.727Z,94032.00
2023-04-02T11:16:55.683Z,94032.00
2023-04-02T11:17:55.718Z,94032.00
2023-04-02T11:18:55.659Z,94032.00
2023-04-02T11:19:55.669Z,94034.00
2023-04-02T11:20:55.682Z,94036.00
2023-04-02T11:21:59.259Z,94036.00
2023-04-02T11:22:55.650Z,94038.00
2023-04-02T11:23:55.650Z,94040.00
2023-04-02T11:24:55.636Z,94038.00
2023-04-02T11:25:55.641Z,94036.00
2023-04-02T11:26:55.612Z,94038.00
2023-04-02T11:27:55.615Z,94040.00
2023-04-02T11:28:55.600Z,94042.00
2023-04-02T11:29:55.604Z,94042.00
2023-04-02T11:30:55.585Z,94042.00
2023-04-02T11:31:55.588Z,94046.00
2023-04-02T11:32:55.582Z,94048.00
2023-04-02T11:33:55.574Z,94048.00
2023-04-02T11:35:55.566Z,94054.00
2023-04-02T11:36:55.552Z,94056.00
2023-04-02T11:37:55.539Z,94058.00
2023-04-02T11:38:59.617Z,94063.00
2023-04-02T11:39:56.513Z,94061.00
2023-04-02T11:40:55.540Z,94060.00
2023-04-02T11:41:55.503Z,94060.00
2023-04-02T11:42:55.502Z,94061.00
2023-04-02T11:43:55.502Z,94065.00
2023-04-02T11:44:55.512Z,94067.00
2023-04-02T11:45:55.726Z,94071.00